Terminal Aerodrome Forecast
Issued by NWS

Home | Current Version | Previous Version | Text Only | Print | Product List | Glossary On
Versions: 1 2 3 4 5 6 7 8 9 10 11 12 13 14 15 16
000
FTUS44 KLIX 300532
TAFMSY
TAF
KMSY 300532Z 3006/0106 24007KT P6SM FEW040 BKN250
     FM301500 24012G19KT P6SM SCT035 SCT160
     FM301800 24014KT P6SM VCTS SCT050CB SCT120 BKN250
     FM010100 23012KT P6SM SCT060 SCT250=

USA.gov is the U.S. government's official web portal to all federal, state and local government web resources and services.